createdAt,value
2022-08-11T00:01:05.558Z,99768.84
2022-08-11T00:03:43.244Z,99756.78
2022-08-11T00:06:14.144Z,99756.16
2022-08-11T00:08:41.223Z,99752.53
2022-08-11T00:11:12.384Z,99723.03
2022-08-11T00:13:45.637Z,99725.78
2022-08-11T00:16:19.375Z,99750.28
2022-08-11T00:18:50.009Z,99749.78
2022-08-11T00:21:17.962Z,99750.72
2022-08-11T00:23:47.366Z,99761.22
2022-08-11T00:26:14.770Z,99752.31
2022-08-11T00:28:41.950Z,99764.75
2022-08-11T00:31:12.066Z,99772.69
2022-08-11T00:33:45.108Z,99731.03
2022-08-11T00:36:15.747Z,99750.63
2022-08-11T00:38:45.271Z,99767.16
2022-08-11T00:41:20.884Z,99754.66
2022-08-11T00:44:12.402Z,99761.44
2022-08-11T00:47:25.425Z,99766.97
2022-08-11T00:50:13.329Z,99769.16
2022-08-11T00:53:21.229Z,99751.28
2022-08-11T00:56:03.067Z,99759.00
2022-08-11T00:58:59.610Z,99745.13
2022-08-11T01:01:38.353Z,99756.47
2022-08-11T01:04:42.291Z,99740.56
2022-08-11T01:08:02.049Z,99746.19
2022-08-11T01:10:31.924Z,99744.28
2022-08-11T01:13:17.074Z,99750.53
2022-08-11T01:16:12.794Z,99737.16
2022-08-11T01:18:41.983Z,99742.91
2022-08-11T01:21:20.814Z,99741.97
2022-08-11T01:24:09.220Z,99755.81
2022-08-11T01:26:57.582Z,99747.16
2022-08-11T01:29:33.390Z,99744.84
2022-08-11T01:32:09.221Z,99741.22
2022-08-11T01:35:30.497Z,99746.75
2022-08-11T01:38:12.321Z,99741.75
2022-08-11T01:41:52.308Z,99738.16
2022-08-11T01:44:52.650Z,99743.78
2022-08-11T01:47:54.451Z,99743.88
2022-08-11T01:50:52.214Z,99731.88
2022-08-11T01:53:48.207Z,99733.72
2022-08-11T01:56:52.607Z,99717.19
2022-08-11T01:59:28.595Z,99702.06
2022-08-11T02:01:58.384Z,99723.63
2022-08-11T02:04:57.909Z,99717.50
2022-08-11T02:07:52.733Z,99715.81
2022-08-11T02:10:53.380Z,99719.88
2022-08-11T02:13:48.919Z,99724.28
2022-08-11T02:16:19.938Z,99730.56
2022-08-11T02:19:14.323Z,99731.19
2022-08-11T02:22:13.726Z,99724.06
2022-08-11T02:24:47.665Z,99740.63
2022-08-11T02:27:19.199Z,99732.06
2022-08-11T02:29:51.885Z,99735.88
2022-08-11T02:32:40.261Z,99725.19
2022-08-11T02:35:13.284Z,99738.75
2022-08-11T02:38:05.670Z,99734.50
2022-08-11T02:41:03.189Z,99733.88
2022-08-11T02:43:53.301Z,99738.94
2022-08-11T02:46:19.855Z,99742.44
2022-08-11T02:49:24.570Z,99741.41
2022-08-11T02:52:01.250Z,99743.97
2022-08-11T02:54:37.072Z,99740.69
2022-08-11T02:57:24.406Z,99739.50
2022-08-11T03:00:07.589Z,99745.84
2022-08-11T03:02:49.198Z,99745.66
2022-08-11T03:05:18.365Z,99745.88
2022-08-11T03:07:52.231Z,99745.41
2022-08-11T03:10:21.799Z,99746.59
2022-08-11T03:13:23.451Z,99740.69
2022-08-11T03:16:44.356Z,99740.66
2022-08-11T03:19:32.734Z,99747.19
2022-08-11T03:22:14.685Z,99746.38
2022-08-11T03:24:59.019Z,99748.91
2022-08-11T03:27:46.969Z,99737.25
2022-08-11T03:30:21.711Z,99732.81
2022-08-11T03:33:23.232Z,99735.09
2022-08-11T03:36:01.791Z,99733.34
2022-08-11T03:38:54.709Z,99730.72
2022-08-11T03:41:50.448Z,99736.72
2022-08-11T03:44:46.825Z,99747.44
2022-08-11T03:47:52.443Z,99747.44
2022-08-11T03:50:30.617Z,99766.81
2022-08-11T03:53:35.739Z,99759.31
2022-08-11T03:56:43.676Z,99759.31
2022-08-11T03:59:39.570Z,99750.63
2022-08-11T04:02:18.211Z,99753.06
2022-08-11T04:05:03.586Z,99736.13
2022-08-11T04:08:01.101Z,99722.78
2022-08-11T04:10:36.672Z,99730.72
2022-08-11T04:13:21.892Z,99746.72
2022-08-11T04:16:26.271Z,99739.09
2022-08-11T04:19:31.258Z,99744.19
2022-08-11T04:21:58.050Z,99739.94
2022-08-11T04:24:39.954Z,99725.97
2022-08-11T04:27:37.481Z,99742.59
2022-08-11T04:30:14.973Z,99738.69
2022-08-11T04:32:54.087Z,99741.31
2022-08-11T04:35:34.481Z,99750.00
2022-08-11T04:38:42.370Z,99727.03
2022-08-11T04:42:03.900Z,99726.06
2022-08-11T04:44:48.567Z,99713.63
2022-08-11T04:48:03.958Z,99683.41
2022-08-11T04:51:17.297Z,99657.97
2022-08-11T04:54:15.221Z,99668.41
2022-08-11T04:57:03.152Z,99661.00
2022-08-11T04:59:57.585Z,99657.19
2022-08-11T05:02:26.957Z,99650.72
2022-08-11T05:05:28.721Z,99658.50
2022-08-11T05:08:33.014Z,99663.53
2022-08-11T05:11:18.263Z,99674.59
2022-08-11T05:14:04.913Z,99663.66
2022-08-11T05:16:53.123Z,99673.06
2022-08-11T05:19:39.578Z,99699.28
2022-08-11T05:22:30.965Z,99726.56
2022-08-11T05:26:44.110Z,99725.97
2022-08-11T05:28:31.207Z,99723.75
2022-08-11T05:31:38.764Z,99742.59
2022-08-11T05:34:30.573Z,99776.25
2022-08-11T05:37:29.243Z,99759.72
2022-08-11T05:40:27.576Z,99762.56
2022-08-11T05:43:20.419Z,99748.28
2022-08-11T05:46:25.214Z,99744.56
2022-08-11T05:49:11.408Z,99770.31
2022-08-11T05:52:05.539Z,99774.56
2022-08-11T05:54:59.383Z,99755.72
2022-08-11T05:57:45.450Z,99754.03
2022-08-11T06:00:19.124Z,99726.81
2022-08-11T06:02:55.361Z,99740.31
2022-08-11T06:05:23.160Z,99741.38
2022-08-11T06:07:54.409Z,99727.94
2022-08-11T06:10:33.254Z,99739.56
2022-08-11T06:13:03.226Z,99739.13
2022-08-11T06:15:31.730Z,99738.13
2022-08-11T06:18:01.351Z,99734.63
2022-08-11T06:20:32.730Z,99743.88
2022-08-11T06:23:03.803Z,99746.25
2022-08-11T06:25:32.363Z,99740.78
2022-08-11T06:27:59.929Z,99743.25
2022-08-11T06:30:42.756Z,99728.84
2022-08-11T06:33:12.385Z,99724.47
2022-08-11T06:35:48.266Z,99705.97
2022-08-11T06:38:36.993Z,99701.75
2022-08-11T06:41:28.340Z,99705.13
2022-08-11T06:44:11.778Z,99713.97
2022-08-11T06:46:40.410Z,99716.78
2022-08-11T06:49:30.803Z,99723.75
2022-08-11T06:52:07.374Z,99704.97
2022-08-11T06:55:05.612Z,99730.63
2022-08-11T06:57:55.745Z,99733.44
2022-08-11T07:00:28.539Z,99736.38
2022-08-11T07:03:19.730Z,99731.06
2022-08-11T07:05:54.137Z,99719.72
2022-08-11T07:09:07.312Z,99749.31
2022-08-11T07:12:18.985Z,99764.56
2022-08-11T07:15:12.282Z,99775.34
2022-08-11T07:17:49.419Z,99757.97
2022-08-11T07:20:36.344Z,99765.25
2022-08-11T07:23:22.487Z,99749.63
2022-08-11T07:26:11.730Z,99753.56
2022-08-11T07:28:59.051Z,99767.50
2022-08-11T07:31:29.207Z,99771.16
2022-08-11T07:34:22.314Z,99764.63
2022-08-11T07:36:59.117Z,99722.75
2022-08-11T07:39:32.355Z,99742.50
2022-08-11T07:42:00.636Z,99730.50
2022-08-11T07:44:35.079Z,99763.59
2022-08-11T07:47:21.127Z,99756.28
2022-08-11T07:50:07.876Z,99743.63
2022-08-11T07:52:41.054Z,99746.31
2022-08-11T07:55:16.838Z,99752.09
2022-08-11T07:58:15.551Z,99739.31
2022-08-11T08:01:09.817Z,99726.97
2022-08-11T08:03:56.926Z,99711.59
2022-08-11T08:06:42.984Z,99688.78
2022-08-11T08:09:29.354Z,99678.16
2022-08-11T08:12:15.053Z,99695.28
2022-08-11T08:15:01.207Z,99713.78
2022-08-11T08:18:09.217Z,99730.47
2022-08-11T08:20:45.548Z,99722.75
2022-08-11T08:23:12.830Z,99722.69
2022-08-11T08:25:40.781Z,99717.38
2022-08-11T08:28:10.851Z,99714.25
2022-08-11T08:30:47.599Z,99726.56
2022-08-11T08:33:17.575Z,99714.84
2022-08-11T08:35:54.329Z,99693.03
2022-08-11T08:38:22.658Z,99720.28
2022-08-11T08:40:53.987Z,99710.13
2022-08-11T08:43:22.900Z,99707.25
2022-08-11T08:45:49.594Z,99723.81
2022-08-11T08:48:17.197Z,99717.03
2022-08-11T08:51:16.652Z,99706.16
2022-08-11T08:53:52.178Z,99698.22
2022-08-11T08:56:25.537Z,99682.53
2022-08-11T08:58:52.291Z,99716.44
2022-08-11T09:01:21.310Z,99706.41
2022-08-11T09:04:05.217Z,99697.50
2022-08-11T09:06:39.868Z,99709.31
2022-08-11T09:09:09.037Z,99674.97
2022-08-11T09:11:55.355Z,99704.66
2022-08-11T09:14:50.104Z,99730.78
2022-08-11T09:17:21.054Z,99737.66
2022-08-11T09:19:56.535Z,99739.31
2022-08-11T09:22:47.050Z,99730.66
2022-08-11T09:25:33.427Z,99705.94
2022-08-11T09:28:00.572Z,99725.47
2022-08-11T09:30:27.958Z,99713.91
2022-08-11T09:32:58.211Z,99714.41
2022-08-11T09:35:28.809Z,99716.59
2022-08-11T09:38:19.822Z,99708.16
2022-08-11T09:40:56.356Z,99715.50
2022-08-11T09:43:43.118Z,99696.31
2022-08-11T09:46:10.282Z,99702.13
2022-08-11T09:48:40.535Z,99690.25
2022-08-11T09:51:07.914Z,99682.59
2022-08-11T09:53:40.978Z,99668.75
2022-08-11T09:56:38.205Z,99665.28
2022-08-11T09:59:05.952Z,99655.75
2022-08-11T10:01:43.621Z,99658.13
2022-08-11T10:04:17.785Z,99661.31
2022-08-11T10:07:06.948Z,99654.16
2022-08-11T10:09:42.684Z,99676.91
2022-08-11T10:12:22.222Z,99663.38
2022-08-11T10:15:12.496Z,99677.38
2022-08-11T10:18:03.013Z,99666.47
2022-08-11T10:20:32.969Z,99659.38
2022-08-11T10:23:18.146Z,99655.38
2022-08-11T10:26:04.536Z,99657.34
2022-08-11T10:28:49.784Z,99672.19
2022-08-11T10:31:56.709Z,99678.03
2022-08-11T10:34:24.986Z,99649.34
2022-08-11T10:36:55.216Z,99668.63
2022-08-11T10:39:22.390Z,99660.81
2022-08-11T10:42:12.225Z,99648.50
2022-08-11T10:44:45.463Z,99638.69
2022-08-11T10:47:32.569Z,99628.16
2022-08-11T10:50:18.346Z,99637.97
2022-08-11T10:53:06.223Z,99627.88
2022-08-11T10:55:51.969Z,99623.25
2022-08-11T10:58:37.555Z,99626.41
2022-08-11T11:01:05.358Z,99623.06
2022-08-11T11:03:34.685Z,99641.47
2022-08-11T11:06:28.164Z,99640.66
2022-08-11T11:09:05.118Z,99610.88
2022-08-11T11:11:55.510Z,99624.66
2022-08-11T11:14:46.393Z,99638.81
2022-08-11T11:17:50.760Z,99621.44
2022-08-11T11:20:36.154Z,99624.78
2022-08-11T11:23:06.724Z,99648.50
2022-08-11T11:26:14.932Z,99639.81
2022-08-11T11:28:50.531Z,99652.56
2022-08-11T11:31:33.736Z,99618.03
2022-08-11T11:34:53.270Z,99623.09
2022-08-11T11:37:23.141Z,99624.00
2022-08-11T11:39:50.242Z,99620.78
2022-08-11T11:42:18.512Z,99635.56
2022-08-11T11:44:45.985Z,99624.78
2022-08-11T11:47:13.010Z,99606.78
2022-08-11T11:49:43.854Z,99632.50
2022-08-11T11:52:15.141Z,99634.78
2022-08-11T11:54:42.369Z,99601.53
2022-08-11T11:57:27.849Z,99641.06
2022-08-11T12:00:13.407Z,99623.19
2022-08-11T12:02:41.029Z,99643.28
2022-08-11T12:05:08.643Z,99624.00
2022-08-11T12:07:56.916Z,99634.84
2022-08-11T12:10:38.054Z,99626.66
2022-08-11T12:13:23.922Z,99628.34
2022-08-11T12:16:31.566Z,99639.41
2022-08-11T12:18:39.109Z,99612.38
2022-08-11T12:21:06.548Z,99617.91
2022-08-11T12:23:53.234Z,99621.00
2022-08-11T12:27:15.336Z,99614.16
2022-08-11T12:29:45.283Z,99621.22
2022-08-11T12:32:12.184Z,99626.97
2022-08-11T12:34:38.846Z,99629.09
2022-08-11T12:37:13.016Z,99612.41
2022-08-11T12:40:15.645Z,99622.03
2022-08-11T12:43:21.707Z,99613.69
2022-08-11T12:45:53.272Z,99627.94
2022-08-11T12:49:01.254Z,99613.56
2022-08-11T12:52:10.933Z,99629.03
2022-08-11T12:54:57.778Z,99642.31
2022-08-11T12:58:03.602Z,99654.56
2022-08-11T13:00:49.395Z,99651.00
2022-08-11T13:03:38.054Z,99629.78
2022-08-11T13:06:06.362Z,99643.63
2022-08-11T13:08:35.592Z,99634.44
2022-08-11T13:11:21.739Z,99641.13
2022-08-11T13:13:54.301Z,99626.38
2022-08-11T13:16:28.347Z,99648.97
2022-08-11T13:18:56.823Z,99642.72
2022-08-11T13:21:24.015Z,99650.25
2022-08-11T13:23:59.869Z,99622.38
2022-08-11T13:26:47.899Z,99625.38
2022-08-11T13:29:21.900Z,99614.56
2022-08-11T13:31:49.303Z,99635.38
2022-08-11T13:34:17.349Z,99634.16
2022-08-11T13:36:45.157Z,99647.84
2022-08-11T13:39:13.718Z,99626.44
2022-08-11T13:41:42.241Z,99635.72
2022-08-11T13:44:12.458Z,99617.91
2022-08-11T13:46:44.447Z,99623.50
2022-08-11T13:49:11.822Z,99618.72
2022-08-11T13:51:40.152Z,99618.44
2022-08-11T13:54:18.951Z,99629.97
2022-08-11T13:56:48.067Z,99622.44
2022-08-11T13:59:15.990Z,99621.84
2022-08-11T14:02:19.484Z,99634.13
2022-08-11T14:04:40.826Z,99630.44
2022-08-11T14:07:09.629Z,99634.00
2022-08-11T14:09:40.098Z,99629.22
2022-08-11T14:12:40.331Z,99640.13
2022-08-11T14:15:34.334Z,99625.31
2022-08-11T14:18:08.775Z,99628.97
2022-08-11T14:20:56.414Z,99618.59
2022-08-11T14:23:37.684Z,99617.38
2022-08-11T14:26:23.148Z,99615.91
2022-08-11T14:29:08.261Z,99627.41
2022-08-11T14:31:38.641Z,99609.34
2022-08-11T14:34:10.505Z,99618.13
2022-08-11T14:36:39.837Z,99619.16
2022-08-11T14:39:12.902Z,99610.59
2022-08-11T14:42:07.551Z,99602.84
2022-08-11T14:44:59.534Z,99620.28
2022-08-11T14:47:27.896Z,99615.09
2022-08-11T14:50:09.457Z,99609.91
2022-08-11T14:52:41.349Z,99610.72
2022-08-11T14:55:27.087Z,99616.03
2022-08-11T14:57:57.062Z,99618.28
2022-08-11T15:00:24.424Z,99617.84
2022-08-11T15:03:10.493Z,99625.06
2022-08-11T15:06:09.992Z,99620.91
2022-08-11T15:08:57.042Z,99606.84
2022-08-11T15:11:49.394Z,99625.75
2022-08-11T15:14:39.187Z,99626.09
2022-08-11T15:17:09.035Z,99639.53
2022-08-11T15:19:40.891Z,99600.41
2022-08-11T15:22:28.169Z,99630.50
2022-08-11T15:24:54.977Z,99639.63
2022-08-11T15:27:41.045Z,99641.94
2022-08-11T15:30:32.181Z,99616.38
2022-08-11T15:33:21.877Z,99633.31
2022-08-11T15:36:08.022Z,99625.94
2022-08-11T15:38:36.394Z,99610.53
2022-08-11T15:41:23.231Z,99616.78
2022-08-11T15:44:11.742Z,99614.41
2022-08-11T15:46:41.728Z,99622.25
2022-08-11T15:49:11.206Z,99613.53
2022-08-11T15:51:48.514Z,99609.84
2022-08-11T15:54:18.133Z,99608.94
2022-08-11T15:56:52.140Z,99609.53
2022-08-11T15:59:42.092Z,99602.72
2022-08-11T16:02:32.104Z,99597.75
2022-08-11T16:05:00.131Z,99602.34
2022-08-11T16:07:29.215Z,99614.25
2022-08-11T16:10:07.554Z,99611.72
2022-08-11T16:12:42.089Z,99615.97
2022-08-11T16:15:29.088Z,99615.81
2022-08-11T16:18:05.502Z,99607.16
2022-08-11T16:20:32.935Z,99612.50
2022-08-11T16:23:03.717Z,99615.50
2022-08-11T16:27:06.207Z,99611.84
2022-08-11T16:28:23.779Z,99623.56
2022-08-11T16:30:51.238Z,99621.56
2022-08-11T16:33:47.973Z,99623.22
2022-08-11T16:36:24.653Z,99640.59
2022-08-11T16:38:53.093Z,99628.59
2022-08-11T16:41:41.062Z,99637.25
2022-08-11T16:44:37.189Z,99641.56
2022-08-11T16:47:06.644Z,99636.59
2022-08-11T16:49:43.004Z,99649.00
2022-08-11T16:52:14.095Z,99652.78
2022-08-11T16:54:44.397Z,99660.97
2022-08-11T16:57:41.651Z,99651.50
2022-08-11T17:00:12.546Z,99672.22
2022-08-11T17:03:04.343Z,99669.28
2022-08-11T17:05:54.292Z,99673.38
2022-08-11T17:08:57.220Z,99662.28
2022-08-11T17:11:46.238Z,99686.13
2022-08-11T17:14:35.146Z,99673.25
2022-08-11T17:17:05.115Z,99675.09
2022-08-11T17:20:43.312Z,99671.75
2022-08-11T17:22:39.431Z,99684.41
2022-08-11T17:25:07.166Z,99679.56
2022-08-11T17:27:35.270Z,99676.59
2022-08-11T17:30:05.319Z,99685.19
2022-08-11T17:33:03.998Z,99675.78
2022-08-11T17:35:35.135Z,99679.66
2022-08-11T17:38:08.161Z,99680.53
2022-08-11T17:40:38.973Z,99680.81
2022-08-11T17:43:27.767Z,99695.72
2022-08-11T17:46:05.273Z,99686.75
2022-08-11T17:48:47.958Z,99697.09
2022-08-11T17:51:37.948Z,99688.53
2022-08-11T17:54:25.414Z,99695.97
2022-08-11T17:57:20.495Z,99689.94
2022-08-11T17:59:56.569Z,99687.28
2022-08-11T18:02:52.489Z,99691.22
2022-08-11T18:05:21.367Z,99698.25
2022-08-11T18:08:09.609Z,99699.34
2022-08-11T18:10:55.470Z,99689.22
2022-08-11T18:13:48.937Z,99682.66
2022-08-11T18:16:34.486Z,99679.88
2022-08-11T18:19:19.914Z,99685.06
2022-08-11T18:22:14.534Z,99698.81
2022-08-11T18:25:10.856Z,99671.59
2022-08-11T18:27:57.573Z,99676.19
2022-08-11T18:30:44.120Z,99694.31
2022-08-11T18:36:43.068Z,99696.16
2022-08-11T18:39:29.829Z,99699.81
2022-08-11T18:42:26.652Z,99706.25
2022-08-11T18:45:18.495Z,99692.06
2022-08-11T18:48:05.506Z,99688.28
2022-08-11T18:50:52.582Z,99686.44
2022-08-11T18:53:58.431Z,99682.56
2022-08-11T18:56:45.274Z,99688.97
2022-08-11T18:59:31.028Z,99686.06
2022-08-11T19:02:16.660Z,99694.22
2022-08-11T19:05:03.274Z,99694.88
2022-08-11T19:07:50.264Z,99692.94
2022-08-11T19:10:37.647Z,99704.22
2022-08-11T19:13:25.432Z,99711.78
2022-08-11T19:16:12.647Z,99711.09
2022-08-11T19:18:59.496Z,99713.75
2022-08-11T19:21:46.680Z,99711.81
2022-08-11T19:24:33.666Z,99693.81
2022-08-11T19:27:22.943Z,99698.31
2022-08-11T19:30:13.981Z,99697.47
2022-08-11T19:33:00.561Z,99697.72
2022-08-11T19:35:46.215Z,99693.13
2022-08-11T19:38:34.574Z,99698.59
2022-08-11T19:41:52.362Z,99698.59
2022-08-11T19:44:25.831Z,99688.78
2022-08-11T19:47:15.036Z,99708.84
2022-08-11T19:50:03.558Z,99706.44
2022-08-11T19:52:52.095Z,99702.25
2022-08-11T19:55:37.999Z,99699.88
2022-08-11T19:58:27.545Z,99712.81
2022-08-11T20:01:12.874Z,99706.34
2022-08-11T20:03:58.156Z,99701.28
2022-08-11T20:06:43.310Z,99702.69
2022-08-11T20:10:05.123Z,99706.63
2022-08-11T20:12:35.074Z,99711.13
2022-08-11T20:15:21.775Z,99697.91
2022-08-11T20:18:06.949Z,99694.97
2022-08-11T20:20:51.930Z,99697.63
2022-08-11T20:23:37.539Z,99691.84
2022-08-11T20:26:31.751Z,99708.59
2022-08-11T20:29:17.878Z,99714.75
2022-08-11T20:32:06.411Z,99697.78
2022-08-11T20:34:57.074Z,99706.75
2022-08-11T20:37:46.637Z,99708.00
2022-08-11T20:40:34.598Z,99681.34
2022-08-11T20:44:06.400Z,99689.19
2022-08-11T20:46:25.709Z,99700.00
2022-08-11T20:49:11.766Z,99691.00
2022-08-11T20:51:58.203Z,99692.13
2022-08-11T20:54:44.899Z,99702.97
2022-08-11T20:57:54.606Z,99699.47
2022-08-11T21:00:39.346Z,99700.00
2022-08-11T21:03:35.530Z,99681.75
2022-08-11T21:06:31.594Z,99691.84
2022-08-11T21:09:23.952Z,99687.91
2022-08-11T21:12:28.939Z,99692.28
2022-08-11T21:15:15.293Z,99692.44
2022-08-11T21:18:28.282Z,99699.88
2022-08-11T21:21:16.706Z,99670.09
2022-08-11T21:24:02.399Z,99643.59
2022-08-11T21:26:50.055Z,99678.41
2022-08-11T21:29:36.421Z,99670.94
2022-08-11T21:32:22.028Z,99682.03
2022-08-11T21:35:07.977Z,99680.63
2022-08-11T21:37:53.919Z,99677.81
2022-08-11T21:40:40.037Z,99664.63
2022-08-11T21:43:25.811Z,99667.28
2022-08-11T21:46:11.336Z,99668.97
2022-08-11T21:48:58.075Z,99685.97
2022-08-11T21:51:44.678Z,99674.88
2022-08-11T21:54:30.006Z,99686.13
2022-08-11T21:57:15.290Z,99688.06
2022-08-11T22:00:09.775Z,99687.25
2022-08-11T22:02:57.513Z,99679.38
2022-08-11T22:05:43.969Z,99683.59
2022-08-11T22:08:29.849Z,99679.25
2022-08-11T22:11:15.029Z,99692.31
2022-08-11T22:14:06.040Z,99692.72
2022-08-11T22:16:54.282Z,99699.16
2022-08-11T22:19:40.363Z,99683.44
2022-08-11T22:22:26.429Z,99706.63
2022-08-11T22:25:16.576Z,99712.38
2022-08-11T22:28:03.891Z,99703.81
2022-08-11T22:30:49.145Z,99695.53
2022-08-11T22:33:34.258Z,99704.66
2022-08-11T22:36:19.929Z,99703.25
2022-08-11T22:39:05.881Z,99700.72
2022-08-11T22:41:51.456Z,99701.69
2022-08-11T22:44:36.798Z,99706.59
2022-08-11T22:47:22.652Z,99721.88
2022-08-11T22:50:16.087Z,99715.56
2022-08-11T22:53:01.733Z,99695.66
2022-08-11T22:55:47.558Z,99720.31
2022-08-11T22:58:34.095Z,99722.44
2022-08-11T23:01:20.025Z,99726.25
2022-08-11T23:04:06.193Z,99710.66
2022-08-11T23:06:53.268Z,99707.69
2022-08-11T23:09:38.703Z,99701.66
2022-08-11T23:12:24.307Z,99684.91
2022-08-11T23:15:10.034Z,99713.81
2022-08-11T23:17:55.927Z,99711.00
2022-08-11T23:20:48.033Z,99697.53
2022-08-11T23:23:35.842Z,99706.19
2022-08-11T23:26:22.355Z,99701.88
2022-08-11T23:29:07.690Z,99709.59
2022-08-11T23:31:53.775Z,99716.28
2022-08-11T23:35:37.246Z,99715.72
2022-08-11T23:38:04.070Z,99715.69
2022-08-11T23:40:49.328Z,99718.22
2022-08-11T23:43:37.722Z,99724.22
2022-08-11T23:46:24.304Z,99723.53
2022-08-11T23:49:14.806Z,99726.16
2022-08-11T23:52:00.561Z,99730.34
2022-08-11T23:54:45.716Z,99731.13
2022-08-11T23:57:31.682Z,99735.75
